Ad?yaman Airport
LTCP : now visible

Airfield :











YOU CAN JOIN US ON...

 
LOGIN :

Register | Disclaimer

   EN    FR    IT 

 









Legend :    VFR   Marginal VFR   IFR   Intensive IFR   Very Intensive IFR
Visi :
Ceiling :
>= 8 km
>= 3000ft
5 to 8 km
1000 to 3000 ft
1500m to 5 km
500 to 1000 ft
800 to 1500m
200 to 500 ft
< 800m
< 200 ft
Symbols :   Thunderstorms  Fog  Heavy snow  Heavy precipitations  Wind > 20 kt






- Airport Elevation : 2216 ft
- IATA code : ADF


LTCP - Ad?yaman

CURRENT METAR :
  • 040950Z 22007KT 180V270 9999 FEW040 SCT100 15/06 Q1020

EXPIRED METARs :
  • 040850Z 22008KT 190V250 CAVOK 14/05 Q1020
  • 040750Z 24006KT 210V270 CAVOK 13/05 Q1020

TAF COR TAF LTCP
Valid from the 04 at 09:00 until the 04 at 18:00 UTC


040740Z 0409/0418 VRB02KT 9999 FEW040 SCT100
BECMG 0415/0417 CAVOK



MET'MAP, your aeronautical weather chart ! - Copyright ORBIFLY December 2007 - Disclaimer

ORBIFLY MET'MAP TEAM :

Programming & Development : Alexandra Zaïnal
Concept & original design : Baudouin d'Aumeries
Assistance for programming : Marc-Olivier Méhu
Technical & hardware support : Manuel Goepfert

Contact : metmap@orbifly.com




SOURCES & CREDITS :

   NOAA       Earth
Advisory